Time;durP1;ratioP1;P1;durP2;ratioP2;P2;SDS_P1;SDS_P2;PMS_P1;PMS_P2;Temp;Humidity;BMP_temperature;BMP_pressure;BME280_temperature;BME280_humidity;BME280_pressure;Samples;Min_cycle;Max_cycle;Signal;HPM_P1;HPM_P2
2024/01/10 00:01:17;;;;;;;24.48;14.38;;;;;;;2.00;100.00;101177.75;5074225;28;20052;-64
2024/01/10 00:03:43;;;;;;;28.17;14.93;;;;;;;1.99;100.00;101180.44;5078193;28;20078;-64
2024/01/10 00:06:09;;;;;;;25.63;12.98;;;;;;;2.06;100.00;101190.50;5076493;28;20044;-62
2024/01/10 00:08:35;;;;;;;24.52;13.20;;;;;;;2.13;100.00;101180.66;5076877;28;20048;-62
2024/01/10 00:11:00;;;;;;;24.10;13.88;;;;;;;2.10;100.00;101183.41;5075310;28;20028;-62
2024/01/10 00:13:27;;;;;;;22.08;13.07;;;;;;;1.97;100.00;101187.50;5076894;28;20108;-63
2024/01/10 00:15:55;;;;;;;22.33;12.30;;;;;;;1.98;100.00;101181.34;5076907;28;20028;-62
2024/01/10 00:18:21;;;;;;;23.67;11.85;;;;;;;1.99;100.00;101194.34;5076823;28;20106;-63
2024/01/10 00:20:47;;;;;;;25.02;12.25;;;;;;;1.84;100.00;101189.84;5075587;28;20242;-62
2024/01/10 00:23:13;;;;;;;22.50;11.50;;;;;;;1.78;100.00;101177.91;5076810;28;20055;-62
2024/01/10 00:25:38;;;;;;;22.88;11.93;;;;;;;1.82;100.00;101196.88;5076695;28;20032;-64
2024/01/10 00:28:05;;;;;;;20.48;11.82;;;;;;;1.91;100.00;101201.69;5075188;28;20393;-64
2024/01/10 00:30:30;;;;;;;23.30;12.65;;;;;;;2.02;100.00;101202.03;5075582;28;20033;-62
2024/01/10 00:32:56;;;;;;;23.55;12.63;;;;;;;1.98;100.00;101200.47;5075740;28;20278;-62
2024/01/10 00:35:21;;;;;;;21.70;12.60;;;;;;;2.02;100.00;101211.63;5076720;28;20067;-62
2024/01/10 00:37:47;;;;;;;22.38;11.48;;;;;;;2.07;100.00;101209.66;5075569;28;20056;-62
2024/01/10 00:40:12;;;;;;;22.00;12.07;;;;;;;2.08;100.00;101209.63;5076639;28;20668;-64
2024/01/10 00:42:38;;;;;;;23.33;12.20;;;;;;;2.15;100.00;101218.84;5074808;28;20047;-63
2024/01/10 00:45:04;;;;;;;22.95;11.57;;;;;;;2.12;100.00;101210.31;5076548;28;20029;-62
2024/01/10 00:47:30;;;;;;;20.13;11.60;;;;;;;2.14;100.00;101214.53;5075030;28;20138;-62
2024/01/10 00:49:55;;;;;;;22.88;11.82;;;;;;;2.19;100.00;101219.56;5076774;28;20044;-62
2024/01/10 00:52:21;;;;;;;20.80;11.25;;;;;;;2.20;100.00;101213.41;5075079;28;20048;-64
2024/01/10 00:54:47;;;;;;;22.60;11.82;;;;;;;2.21;100.00;101218.56;5075721;28;20396;-62
2024/01/10 00:57:12;;;;;;;21.00;11.35;;;;;;;2.23;100.00;101215.88;5076482;28;20033;-62
2024/01/10 00:59:38;;;;;;;24.00;12.00;;;;;;;2.27;100.00;101211.34;5077426;28;20353;-62
2024/01/10 01:02:03;;;;;;;21.10;12.10;;;;;;;2.17;100.00;101213.56;5075069;28;20055;-63
2024/01/10 01:04:29;;;;;;;24.13;13.68;;;;;;;2.18;100.00;101212.63;5075768;28;20348;-64
2024/01/10 01:06:54;;;;;;;27.38;14.18;;;;;;;2.22;100.00;101206.34;5076289;28;20036;-62
2024/01/10 01:09:20;;;;;;;27.92;13.98;;;;;;;2.26;100.00;101207.03;5076112;28;20038;-62
2024/01/10 01:11:45;;;;;;;21.10;12.90;;;;;;;2.22;100.00;101214.19;5077208;28;20041;-62
2024/01/10 01:14:11;;;;;;;25.65;13.73;;;;;;;2.24;100.00;101213.19;5075257;28;20048;-63
2024/01/10 01:16:37;;;;;;;30.13;14.50;;;;;;;2.27;100.00;101222.66;5076896;28;20099;-63
2024/01/10 01:19:02;;;;;;;26.77;13.32;;;;;;;2.31;100.00;101215.50;5075559;28;20037;-64
2024/01/10 01:21:28;;;;;;;30.85;14.48;;;;;;;2.28;100.00;101220.88;5076630;28;20048;-63
2024/01/10 01:23:54;;;;;;;27.40;14.52;;;;;;;2.18;100.00;101207.41;5075168;28;20044;-62
2024/01/10 01:26:19;;;;;;;28.73;14.43;;;;;;;2.02;100.00;101215.09;5076281;28;20060;-62
2024/01/10 01:28:45;;;;;;;26.55;14.82;;;;;;;2.03;100.00;101215.94;5076027;28;20097;-64
2024/01/10 01:31:11;;;;;;;28.52;14.05;;;;;;;1.99;100.00;101217.00;5076263;28;20040;-64
2024/01/10 01:33:36;;;;;;;31.40;14.80;;;;;;;2.01;100.00;101215.16;5076572;28;20064;-63
2024/01/10 01:36:02;;;;;;;24.98;14.43;;;;;;;2.00;100.00;101211.72;5075671;28;20036;-62
2024/01/10 01:38:27;;;;;;;28.75;15.57;;;;;;;2.04;100.00;101215.88;5075701;28;20044;-62
2024/01/10 01:40:53;;;;;;;29.20;15.30;;;;;;;2.13;100.00;101215.47;5075448;28;20226;-64
2024/01/10 01:43:24;;;;;;;24.15;13.93;;;;;;;2.16;100.00;101217.94;5076673;28;20028;-64
2024/01/10 01:45:52;;;;;;;26.73;14.75;;;;;;;2.15;100.00;101205.78;5074995;28;20089;-62
2024/01/10 01:48:19;;;;;;;25.92;14.75;;;;;;;2.14;100.00;101213.69;5075154;28;20293;-63
2024/01/10 01:50:45;;;;;;;26.40;14.70;;;;;;;2.19;100.00;101211.72;5075086;28;20083;-63
2024/01/10 01:53:13;;;;;;;25.40;13.65;;;;;;;2.14;100.00;101208.47;5077555;28;20082;-64
2024/01/10 01:55:39;;;;;;;30.55;15.80;;;;;;;2.22;100.00;101208.97;5078011;28;20102;-64
2024/01/10 01:58:05;;;;;;;32.65;16.10;;;;;;;2.22;100.00;101204.56;5079717;28;20029;-62
2024/01/10 02:00:31;;;;;;;27.95;14.98;;;;;;;2.25;100.00;101206.19;5079743;28;20044;-62
2024/01/10 02:02:58;;;;;;;31.05;14.73;;;;;;;2.28;100.00;101199.97;5080155;28;20047;-65
2024/01/10 02:05:25;;;;;;;31.33;14.93;;;;;;;2.24;100.00;101197.50;5079933;28;20039;-63
2024/01/10 02:07:51;;;;;;;28.33;14.40;;;;;;;2.23;100.00;101197.59;5079899;28;20067;-62
2024/01/10 02:10:18;;;;;;;27.42;14.57;;;;;;;2.21;100.00;101189.81;5080205;28;20218;-61
2024/01/10 02:12:44;;;;;;;28.55;14.80;;;;;;;2.17;100.00;101183.03;5078787;28;20040;-62
2024/01/10 02:15:09;;;;;;;28.52;15.48;;;;;;;2.18;100.00;101184.75;5078044;28;20028;-63
2024/01/10 02:17:35;;;;;;;26.88;14.68;;;;;;;2.19;100.00;101190.81;5078655;28;20059;-64
2024/01/10 02:20:17;;;;;;;26.65;15.50;;;;;;;2.21;100.00;101183.75;5079540;28;20032;-62
2024/01/10 02:22:42;;;;;;;28.35;14.70;;;;;;;2.29;100.00;101178.16;5078900;28;20033;-62
2024/01/10 02:25:09;;;;;;;30.38;15.20;;;;;;;2.33;100.00;101185.75;5079524;28;20034;-61
2024/01/10 02:27:39;;;;;;;26.92;14.85;;;;;;;2.33;100.00;101179.69;5079063;28;20269;-64
2024/01/10 02:30:06;;;;;;;28.10;13.80;;;;;;;2.36;100.00;101182.16;5079475;28;20032;-62
2024/01/10 02:32:32;;;;;;;26.25;12.90;;;;;;;2.43;100.00;101184.41;5077402;28;20036;-62
2024/01/10 02:34:58;;;;;;;23.58;13.30;;;;;;;2.46;100.00;101179.00;5079283;28;20052;-62
2024/01/10 02:37:24;;;;;;;27.45;12.52;;;;;;;2.44;100.00;101167.78;5078033;28;20029;-63
2024/01/10 02:39:49;;;;;;;24.40;11.45;;;;;;;2.39;100.00;101182.00;5079352;28;20059;-63
2024/01/10 02:42:15;;;;;;;27.08;14.05;;;;;;;2.41;100.00;101182.78;5077852;28;20036;-62
2024/01/10 02:44:41;;;;;;;23.48;12.13;;;;;;;2.35;100.00;101188.31;5078973;28;20033;-62
2024/01/10 02:47:07;;;;;;;22.20;12.45;;;;;;;2.44;100.00;101191.31;5077314;28;20045;-64
2024/01/10 02:49:32;;;;;;;22.90;12.63;;;;;;;2.51;100.00;101189.25;5078606;28;20077;-63
2024/01/10 02:51:58;;;;;;;24.15;12.52;;;;;;;2.48;100.00;101187.63;5078483;28;20033;-62
2024/01/10 02:54:24;;;;;;;23.73;12.80;;;;;;;2.51;100.00;101174.41;5078378;28;20028;-61
2024/01/10 02:56:49;;;;;;;21.63;11.88;;;;;;;2.48;100.00;101179.78;5078939;28;20334;-61
2024/01/10 02:59:15;;;;;;;26.25;13.13;;;;;;;2.51;100.00;101177.03;5077704;28;20060;-63
2024/01/10 03:01:41;;;;;;;24.48;12.88;;;;;;;2.44;100.00;101182.63;5078381;28;20044;-62
2024/01/10 03:04:06;;;;;;;22.17;12.00;;;;;;;2.42;100.00;101179.25;5078084;28;20043;-62
2024/01/10 03:06:32;;;;;;;20.73;10.82;;;;;;;2.42;100.00;101182.69;5078987;28;20043;-62
2024/01/10 03:08:57;;;;;;;24.30;11.25;;;;;;;2.35;100.00;101181.31;5075990;28;20036;-64
2024/01/10 03:11:23;;;;;;;23.50;12.52;;;;;;;2.49;100.00;101180.63;5079012;28;20142;-63
2024/01/10 03:14:02;;;;;;;20.58;10.68;;;;;;;2.46;100.00;101176.41;5077645;28;20121;-61
2024/01/10 03:16:28;;;;;;;22.85;12.27;;;;;;;2.48;100.00;101171.94;5078401;28;20033;-62
2024/01/10 03:18:53;;;;;;;23.63;11.52;;;;;;;2.52;100.00;101172.63;5077384;28;20469;-64
2024/01/10 03:21:24;;;;;;;19.98;10.75;;;;;;;2.50;100.00;101170.09;5077862;28;20024;-64
2024/01/10 03:23:51;;;;;;;22.15;11.40;;;;;;;2.51;100.00;101169.19;5077142;28;20404;-61
2024/01/10 03:26:17;;;;;;;17.52;10.68;;;;;;;2.46;100.00;101173.78;5077741;28;20041;-62
2024/01/10 03:28:42;;;;;;;18.63;10.20;;;;;;;2.37;100.00;101155.09;5077969;28;20106;-63
2024/01/10 03:31:08;;;;;;;21.33;11.60;;;;;;;2.48;100.00;101171.94;5077661;28;20047;-63
2024/01/10 03:33:33;;;;;;;20.33;10.25;;;;;;;2.49;100.00;101176.25;5077498;28;20789;-61
2024/01/10 03:35:59;;;;;;;21.27;10.75;;;;;;;2.48;100.00;101177.16;5078050;28;20040;-61
2024/01/10 03:38:24;;;;;;;19.83;11.85;;;;;;;2.45;100.00;101182.56;5078074;28;20977;-62
2024/01/10 03:40:50;;;;;;;18.13;11.55;;;;;;;2.34;100.00;101187.47;5077743;28;20215;-63
2024/01/10 03:43:16;;;;;;;22.35;11.70;;;;;;;2.26;100.00;101180.91;5078662;28;20323;-62
2024/01/10 03:45:42;;;;;;;21.73;11.85;;;;;;;2.28;100.00;101182.53;5077658;28;20103;-61
2024/01/10 03:48:07;;;;;;;21.77;11.30;;;;;;;2.32;100.00;101186.69;5078665;28;20037;-61
2024/01/10 03:50:33;;;;;;;19.60;11.32;;;;;;;2.37;100.00;101184.69;5076954;28;20036;-63
2024/01/10 03:52:59;;;;;;;21.88;11.60;;;;;;;2.44;100.00;101183.47;5077849;28;20314;-64
2024/01/10 03:55:24;;;;;;;20.67;11.88;;;;;;;2.48;100.00;101181.56;5075503;28;20032;-63
2024/01/10 03:57:50;;;;;;;17.85;9.82;;;;;;;2.47;100.00;101178.09;5077609;28;20334;-62
2024/01/10 04:00:16;;;;;;;21.42;11.52;;;;;;;2.55;100.00;101186.41;5076616;28;20044;-62
2024/01/10 04:02:41;;;;;;;21.45;11.15;;;;;;;2.60;100.00;101193.19;5076884;28;20276;-64
2024/01/10 04:05:09;;;;;;;23.73;11.02;;;;;;;2.61;100.00;101194.88;5075913;28;20024;-62
2024/01/10 04:07:36;;;;;;;20.98;11.15;;;;;;;2.41;100.00;101193.22;5077110;28;20044;-62
2024/01/10 04:10:02;;;;;;;19.55;11.15;;;;;;;2.57;100.00;101191.56;5076457;28;20253;-62
2024/01/10 04:12:28;;;;;;;19.95;11.60;;;;;;;2.64;100.00;101192.09;5076985;28;20033;-64
2024/01/10 04:14:53;;;;;;;21.15;10.65;;;;;;;2.67;100.00;101191.94;5077748;28;20207;-64
2024/01/10 04:17:19;;;;;;;21.42;11.20;;;;;;;2.55;99.72;101196.03;5076625;28;20093;-62
2024/01/10 04:19:44;;;;;;;24.17;13.05;;;;;;;2.63;99.64;101201.72;5077626;28;20032;-65
2024/01/10 04:22:10;;;;;;;17.92;9.70;;;;;;;2.61;98.88;101192.25;5075329;28;20041;-62
2024/01/10 04:24:36;;;;;;;19.77;11.07;;;;;;;2.51;99.51;101194.47;5077054;28;20343;-64
2024/01/10 04:27:01;;;;;;;21.20;11.85;;;;;;;2.53;99.47;101208.31;5076084;28;20094;-62
2024/01/10 04:29:27;;;;;;;30.83;16.35;;;;;;;2.50;98.89;101203.25;5076710;28;20032;-62
2024/01/10 04:31:52;;;;;;;70.22;32.00;;;;;;;2.58;98.57;101201.09;5075831;28;20032;-62
2024/01/10 04:34:18;;;;;;;69.40;30.90;;;;;;;2.64;99.18;101206.03;5076525;28;20369;-64
2024/01/10 04:36:44;;;;;;;60.67;27.75;;;;;;;2.45;97.29;101192.16;5076542;28;20346;-63
2024/01/10 04:39:09;;;;;;;53.88;23.20;;;;;;;2.55;94.79;101214.31;5076656;28;20144;-62
2024/01/10 04:41:35;;;;;;;21.50;11.95;;;;;;;2.36;93.25;101214.38;5075716;28;20029;-62
2024/01/10 04:44:00;;;;;;;17.55;9.75;;;;;;;2.36;92.57;101216.13;5076322;28;20032;-61
2024/01/10 04:46:26;;;;;;;11.85;6.63;;;;;;;2.41;91.37;101222.84;5076761;28;20044;-64
2024/01/10 04:48:51;;;;;;;11.52;5.97;;;;;;;2.27;88.89;101229.66;5076263;28;20044;-63
2024/01/10 04:51:17;;;;;;;17.65;11.20;;;;;;;2.08;88.58;101233.13;5076291;28;20036;-63
2024/01/10 04:53:43;;;;;;;33.05;16.88;;;;;;;1.95;86.54;101228.50;5076161;28;20250;-61
2024/01/10 04:56:08;;;;;;;31.60;17.20;;;;;;;1.82;86.49;101230.84;5076964;28;20047;-61
2024/01/10 04:58:34;;;;;;;26.98;16.83;;;;;;;1.63;85.16;101230.84;5075014;28;20051;-63
2024/01/10 05:01:00;;;;;;;27.52;11.20;;;;;;;1.57;86.80;101231.94;5075272;28;20048;-62
2024/01/10 05:03:26;;;;;;;19.48;9.57;;;;;;;1.40;86.73;101233.63;5075615;28;20194;-61
2024/01/10 05:05:51;;;;;;;11.73;6.32;;;;;;;1.23;85.44;101244.78;5072904;28;20218;-61
2024/01/10 05:08:20;;;;;;;9.20;4.40;;;;;;;1.02;83.99;101243.91;5074918;28;20044;-61
2024/01/10 05:10:46;;;;;;;6.88;4.80;;;;;;;0.80;83.62;101249.19;5075706;28;20170;-63
2024/01/10 05:13:12;;;;;;;11.55;4.82;;;;;;;0.89;83.59;101246.19;5074468;28;20029;-63
2024/01/10 05:15:38;;;;;;;13.23;6.35;;;;;;;1.06;82.40;101248.13;5075958;28;20036;-62
2024/01/10 05:18:03;;;;;;;32.67;11.00;;;;;;;0.89;81.00;101251.41;5073550;28;20055;-62
2024/01/10 05:20:29;;;;;;;49.13;19.63;;;;;;;1.12;80.39;101249.63;5075660;28;20035;-62
2024/01/10 05:22:58;;;;;;;98.82;53.42;;;;;;;1.22;79.46;101256.13;5074610;28;20222;-63
2024/01/10 05:25:24;;;;;;;41.17;18.52;;;;;;;0.99;80.42;101259.69;5075893;28;20096;-64
2024/01/10 05:27:49;;;;;;;12.05;7.85;;;;;;;1.03;78.83;101242.16;5075904;28;20119;-61
2024/01/10 05:30:15;;;;;;;8.65;5.07;;;;;;;1.04;79.47;101252.56;5077969;28;20322;-62
2024/01/10 05:32:41;;;;;;;6.50;4.03;;;;;;;1.07;79.15;101252.41;5078296;28;20330;-61
2024/01/10 05:35:08;;;;;;;5.82;3.00;;;;;;;1.20;78.35;101250.13;5079429;28;20031;-63
2024/01/10 05:37:33;;;;;;;14.02;6.47;;;;;;;1.14;79.41;101251.25;5079325;28;20063;-61
2024/01/10 05:39:58;;;;;;;17.70;10.82;;;;;;;1.30;78.00;101255.81;5078844;28;20032;-62
2024/01/10 05:42:24;;;;;;;18.63;10.63;;;;;;;1.48;78.41;101260.22;5078760;28;20040;-62
2024/01/10 05:44:50;;;;;;;13.20;8.77;;;;;;;1.49;76.53;101264.53;5078991;28;20341;-61
2024/01/10 05:47:16;;;;;;;10.90;6.35;;;;;;;1.25;76.07;101263.84;5079798;28;20049;-63
2024/01/10 05:49:42;;;;;;;7.18;4.50;;;;;;;1.35;76.69;101262.53;5078978;28;20032;-62
2024/01/10 05:52:08;;;;;;;6.20;5.05;;;;;;;1.37;77.29;101258.09;5080372;28;20700;-61
2024/01/10 05:54:33;;;;;;;8.93;6.05;;;;;;;1.39;75.71;101261.47;5078571;28;20027;-61
2024/01/10 05:57:00;;;;;;;13.45;7.38;;;;;;;1.46;76.08;101257.69;5079813;28;20040;-62
2024/01/10 05:59:26;;;;;;;22.70;10.32;;;;;;;1.50;75.42;101267.06;5078234;28;20032;-64
2024/01/10 06:01:52;;;;;;;81.20;32.25;;;;;;;1.60;74.30;101265.75;5080020;28;20044;-63
2024/01/10 06:04:17;;;;;;;146.68;54.47;;;;;;;1.72;74.71;101264.34;5078779;28;20135;-61
2024/01/10 06:06:45;;;;;;;121.72;43.10;;;;;;;1.81;74.28;101270.94;5079646;28;20095;-61
2024/01/10 06:09:11;;;;;;;78.00;28.65;;;;;;;1.87;73.45;101274.13;5079345;28;20238;-64
2024/01/10 06:11:45;;;;;;;72.05;31.63;;;;;;;2.00;74.45;101281.41;5079416;28;20038;-63
2024/01/10 06:14:10;;;;;;;181.73;64.03;;;;;;;2.07;74.45;101283.66;5078953;28;20045;-62
2024/01/10 06:16:36;;;;;;;103.90;41.22;;;;;;;2.12;73.70;101281.72;5078797;28;20040;-61
2024/01/10 06:19:01;;;;;;;154.65;54.05;;;;;;;2.15;73.84;101278.13;5078591;28;20208;-63
2024/01/10 06:21:27;;;;;;;78.55;32.05;;;;;;;2.23;73.85;101278.59;5079248;28;20032;-64
2024/01/10 06:23:52;;;;;;;51.85;21.88;;;;;;;2.24;75.32;101293.38;5078540;28;20052;-61
2024/01/10 06:26:18;;;;;;;48.22;20.33;;;;;;;2.25;76.60;101292.44;5077884;28;20032;-61
2024/01/10 06:28:44;;;;;;;28.02;14.50;;;;;;;2.17;78.05;101297.19;5078840;28;20064;-63
2024/01/10 06:31:09;;;;;;;13.80;7.05;;;;;;;2.05;78.88;101298.56;5077173;28;20029;-63
2024/01/10 06:33:35;;;;;;;8.50;4.22;;;;;;;2.00;78.04;101310.13;5079566;28;20037;-62
2024/01/10 06:36:00;;;;;;;7.15;4.00;;;;;;;1.98;76.34;101312.81;5077669;28;20066;-62
2024/01/10 06:38:26;;;;;;;12.02;6.63;;;;;;;2.00;77.71;101316.22;5078377;28;20211;-62
2024/01/10 06:40:51;;;;;;;18.13;11.23;;;;;;;2.03;78.15;101315.22;5077018;28;20040;-65
2024/01/10 06:43:17;;;;;;;20.65;11.80;;;;;;;2.06;79.38;101320.31;5078322;28;20115;-63
2024/01/10 06:45:43;;;;;;;23.92;11.38;;;;;;;2.06;78.47;101325.53;5076344;28;20060;-63
2024/01/10 06:48:08;;;;;;;19.75;10.95;;;;;;;2.04;78.87;101333.44;5077589;28;20242;-62
2024/01/10 06:50:34;;;;;;;20.55;9.77;;;;;;;2.03;79.12;101331.75;5078097;28;20092;-64
2024/01/10 06:52:59;;;;;;;20.95;9.73;;;;;;;1.99;79.90;101318.88;5077850;28;20049;-63
2024/01/10 06:55:25;;;;;;;16.05;8.40;;;;;;;2.03;81.54;101331.75;5078252;28;20044;-63
2024/01/10 06:57:52;;;;;;;20.80;9.77;;;;;;;2.02;82.06;101330.06;5077763;28;20028;-63
2024/01/10 07:00:21;;;;;;;14.68;7.13;;;;;;;2.00;82.36;101333.66;5078756;28;20146;-64
2024/01/10 07:02:46;;;;;;;14.15;6.43;;;;;;;1.92;81.11;101332.22;5078013;28;20121;-63
2024/01/10 07:05:12;;;;;;;17.98;8.55;;;;;;;1.94;81.00;101337.38;5078147;28;20036;-62
2024/01/10 07:07:37;;;;;;;16.50;8.77;;;;;;;1.99;81.29;101339.78;5075637;28;20070;-63
2024/01/10 07:10:04;;;;;;;18.00;8.88;;;;;;;1.90;80.94;101338.44;5077775;28;20318;-64
2024/01/10 07:12:33;;;;;;;152.77;45.95;;;;;;;1.95;80.71;101346.91;5075880;28;20051;-64
2024/01/10 07:14:59;;;;;;;72.07;26.50;;;;;;;1.95;80.71;101346.91;5077828;28;20090;-62
2024/01/10 07:17:25;;;;;;;25.77;13.60;;;;;;;2.00;81.91;101349.31;5075453;28;20357;-62
2024/01/10 07:19:50;;;;;;;21.88;9.05;;;;;;;2.03;82.17;101354.41;5078002;28;20032;-63
2024/01/10 07:22:17;;;;;;;17.65;8.95;;;;;;;2.01;81.44;101359.69;5077980;28;20048;-64
2024/01/10 07:24:43;;;;;;;13.50;8.57;;;;;;;2.03;81.86;101354.41;5076810;28;20040;-63
2024/01/10 07:27:09;;;;;;;14.88;7.90;;;;;;;2.09;82.22;101356.78;5076990;28;20104;-63
2024/01/10 07:29:35;;;;;;;14.10;7.57;;;;;;;2.06;82.16;101357.72;5077341;28;20081;-63
2024/01/10 07:32:00;;;;;;;18.75;11.05;;;;;;;2.03;80.80;101367.47;5077084;28;20039;-65
2024/01/10 07:34:26;;;;;;;18.30;11.10;;;;;;;2.03;79.89;101370.09;5077551;28;20342;-65
2024/01/10 07:36:53;;;;;;;20.05;13.13;;;;;;;1.97;79.71;101367.75;5077990;28;20367;-62
2024/01/10 07:39:19;;;;;;;25.42;13.55;;;;;;;2.02;80.06;101371.00;5076225;28;20029;-63
2024/01/10 07:41:46;;;;;;;26.38;14.65;;;;;;;2.04;80.29;101369.16;5077482;28;20069;-63
2024/01/10 07:44:12;;;;;;;48.45;21.05;;;;;;;2.06;80.92;101372.56;5076621;28;20075;-65
2024/01/10 07:46:38;;;;;;;27.67;11.77;;;;;;;1.98;79.29;101372.06;5077463;28;20206;-63
2024/01/10 07:49:04;;;;;;;28.95;13.88;;;;;;;1.98;75.97;101377.28;5074706;28;20104;-63
2024/01/10 07:51:30;;;;;;;20.48;10.93;;;;;;;2.01;76.89;101382.38;5077166;28;20029;-64
2024/01/10 07:53:56;;;;;;;40.47;15.68;;;;;;;1.98;76.32;101380.75;5076695;28;20379;-63
2024/01/10 07:56:22;;;;;;;55.03;24.05;;;;;;;2.06;74.15;101380.41;5076656;28;20044;-65
2024/01/10 07:58:48;;;;;;;33.35;15.38;;;;;;;2.12;73.67;101386.25;5076297;28;20040;-63
2024/01/10 08:01:15;;;;;;;24.25;11.60;;;;;;;2.19;74.71;101385.03;5076315;28;20040;-63
2024/01/10 08:03:41;;;;;;;18.13;9.32;;;;;;;2.25;73.89;101389.16;5077430;28;20470;-63
2024/01/10 08:06:06;;;;;;;14.52;7.20;;;;;;;2.13;72.59;101387.94;5076750;28;20032;-63
2024/01/10 08:08:32;;;;;;;37.75;14.10;;;;;;;2.17;71.87;101389.50;5075236;28;20359;-65
2024/01/10 08:10:58;;;;;;;18.38;7.95;;;;;;;2.10;72.07;101390.69;5075282;28;20222;-63
2024/01/10 08:13:23;;;;;;;17.30;8.18;;;;;;;2.09;72.64;101381.16;5075296;28;20032;-62
2024/01/10 08:15:49;;;;;;;14.38;7.65;;;;;;;2.26;73.14;101384.78;5075561;28;20044;-63
2024/01/10 08:18:14;;;;;;;13.85;8.10;;;;;;;2.37;73.01;101390.34;5076392;28;20047;-64
2024/01/10 08:20:40;;;;;;;17.38;6.55;;;;;;;2.39;71.72;101378.91;5073577;28;20135;-64
2024/01/10 08:23:06;;;;;;;9.75;5.88;;;;;;;2.33;71.96;101392.25;5076257;28;20060;-63
2024/01/10 08:25:31;;;;;;;8.60;6.10;;;;;;;2.35;72.25;101379.13;5074422;28;20035;-63
2024/01/10 08:27:57;;;;;;;6.82;4.50;;;;;;;2.47;72.35;101391.63;5075264;28;20334;-63
2024/01/10 08:30:23;;;;;;;8.43;4.50;;;;;;;2.56;72.87;101386.81;5074049;28;20318;-64
2024/01/10 08:32:49;;;;;;;6.18;4.20;;;;;;;2.67;73.42;101381.09;5075751;28;20064;-65
2024/01/10 08:35:15;;;;;;;7.53;4.25;;;;;;;2.76;70.64;101388.50;5076351;28;20059;-63
2024/01/10 08:37:44;;;;;;;8.25;5.43;;;;;;;2.80;71.15;101387.44;5076331;28;20032;-63
2024/01/10 08:40:12;;;;;;;10.77;6.38;;;;;;;2.74;72.06;101385.13;5075292;28;20024;-63
2024/01/10 08:42:38;;;;;;;13.38;6.97;;;;;;;2.86;71.85;101383.69;5075173;28;20032;-65
2024/01/10 08:45:04;;;;;;;67.63;28.45;;;;;;;2.92;72.16;101383.41;5075622;28;20318;-64
2024/01/10 08:47:32;;;;;;;29.65;12.18;;;;;;;2.81;71.13;101388.28;5075494;28;20121;-63
2024/01/10 08:49:58;;;;;;;35.17;13.30;;;;;;;2.79;70.31;101379.69;5075876;28;20033;-62
2024/01/10 08:52:24;;;;;;;13.18;7.22;;;;;;;2.80;69.99;101384.00;5075927;28;20040;-64
2024/01/10 08:54:49;;;;;;;27.58;12.02;;;;;;;2.75;70.89;101373.75;5077253;28;20364;-64
2024/01/10 08:57:15;;;;;;;12.98;8.68;;;;;;;2.73;72.85;101372.13;5074973;28;20230;-63
2024/01/10 08:59:44;;;;;;;10.88;5.80;;;;;;;2.67;71.74;101370.63;5076123;28;20418;-63
2024/01/10 09:02:10;;;;;;;8.80;4.80;;;;;;;2.68;72.91;101371.47;5073641;28;20083;-63
2024/01/10 09:04:36;;;;;;;10.90;6.18;;;;;;;2.68;73.04;101369.72;5074892;28;20032;-65
2024/01/10 09:07:01;;;;;;;10.10;6.03;;;;;;;2.59;71.34;101364.06;5074019;28;20379;-65
2024/01/10 09:09:27;;;;;;;17.20;7.65;;;;;;;2.63;73.08;101360.41;5075040;28;20058;-62
2024/01/10 09:11:53;;;;;;;24.60;11.73;;;;;;;2.58;74.04;101360.59;5074739;28;20028;-63
2024/01/10 09:14:19;;;;;;;20.60;10.38;;;;;;;2.48;75.27;101351.50;5073184;28;20055;-62
2024/01/10 09:16:45;;;;;;;46.67;18.23;;;;;;;2.60;73.72;101353.53;5073758;28;20317;-63
2024/01/10 09:19:10;;;;;;;37.20;23.98;;;;;;;2.80;72.16;101358.69;5074405;28;20100;-63
2024/01/10 09:21:36;;;;;;;16.77;9.82;;;;;;;2.94;73.20;101347.53;5074342;28;20048;-65
2024/01/10 09:24:05;;;;;;;10.93;6.40;;;;;;;2.86;73.06;101353.16;5074153;28;20074;-64
2024/01/10 09:26:30;;;;;;;9.75;5.82;;;;;;;2.87;72.06;101354.84;5073817;28;20058;-64
2024/01/10 09:28:56;;;;;;;12.02;5.40;;;;;;;2.94;71.29;101350.16;5073978;28;20096;-63
2024/01/10 09:31:21;;;;;;;10.25;5.35;;;;;;;2.99;71.63;101358.63;5075050;28;20051;-63
2024/01/10 09:33:47;;;;;;;6.68;3.53;;;;;;;3.10;70.51;101350.25;5072843;28;20033;-64
2024/01/10 09:36:14;;;;;;;11.02;4.03;;;;;;;3.18;69.37;101356.84;5075181;28;20048;-65
2024/01/10 09:38:40;;;;;;;20.00;8.93;;;;;;;3.30;71.93;101354.53;5074075;28;20039;-63
2024/01/10 09:41:05;;;;;;;16.27;11.52;;;;;;;3.12;71.82;101349.28;5074904;28;20036;-63
2024/01/10 09:43:33;;;;;;;17.00;9.65;;;;;;;3.14;73.09;101342.22;5074131;28;20090;-63
2024/01/10 09:46:00;;;;;;;22.92;11.10;;;;;;;3.21;73.49;101350.59;5075240;28;20422;-63
2024/01/10 09:48:26;;;;;;;16.85;8.98;;;;;;;3.29;73.14;101337.13;5074452;28;20488;-64
2024/01/10 09:50:52;;;;;;;17.30;7.60;;;;;;;3.38;72.97;101348.00;5074967;28;20036;-63
2024/01/10 09:53:31;;;;;;;11.27;6.70;;;;;;;3.32;72.55;101347.47;5074956;28;20437;-64
2024/01/10 09:55:57;;;;;;;12.75;6.75;;;;;;;3.30;72.71;101347.53;5074890;28;20035;-62
2024/01/10 09:58:26;;;;;;;12.75;8.35;;;;;;;3.26;72.85;101337.28;5074988;28;20036;-62
2024/01/10 10:00:52;;;;;;;14.75;8.35;;;;;;;3.18;74.36;101340.28;5074956;28;20048;-62
2024/01/10 10:03:19;;;;;;;22.80;10.07;;;;;;;3.07;75.04;101332.09;5074647;28;20033;-63
2024/01/10 10:05:44;;;;;;;20.05;9.30;;;;;;;3.18;75.19;101327.19;5074739;28;20052;-63
2024/01/10 10:08:12;;;;;;;12.63;7.55;;;;;;;3.07;75.37;101330.31;5075426;28;20043;-62
2024/01/10 10:10:44;;;;;;;16.10;8.73;;;;;;;3.20;74.27;101325.34;5074936;28;20032;-62
2024/01/10 10:13:15;;;;;;;15.13;7.97;;;;;;;2.91;75.69;101318.91;5074380;28;20222;-61
2024/01/10 10:15:40;;;;;;;14.35;7.32;;;;;;;3.02;76.09;101318.38;5076143;28;20036;-63
2024/01/10 10:18:06;;;;;;;16.70;9.55;;;;;;;3.03;74.75;101318.31;5079824;28;20040;-64
2024/01/10 10:20:32;;;;;;;11.50;7.10;;;;;;;2.95;76.67;101312.59;5078293;28;20211;-63
2024/01/10 10:23:10;;;;;;;13.88;7.78;;;;;;;3.13;77.10;101308.25;5079526;28;20032;-64
2024/01/10 10:25:38;;;;;;;22.15;11.27;;;;;;;2.95;78.89;101307.38;5077825;28;20348;-64
2024/01/10 10:28:04;;;;;;;30.73;20.45;;;;;;;2.98;80.28;101296.75;5077971;28;20032;-63
2024/01/10 10:30:31;;;;;;;30.55;17.45;;;;;;;3.25;79.74;101297.19;5076388;28;20070;-63
2024/01/10 10:32:57;;;;;;;19.77;9.73;;;;;;;3.19;81.71;101297.50;5077794;28;20036;-64
2024/01/10 10:35:23;;;;;;;16.35;9.25;;;;;;;3.10;83.53;101290.06;5077224;28;20047;-62
2024/01/10 10:37:50;;;;;;;16.80;8.65;;;;;;;3.24;83.89;101284.16;5077579;28;20040;-63
2024/01/10 10:40:16;;;;;;;15.40;8.98;;;;;;;3.22;82.80;101286.03;5077216;28;20142;-64
2024/01/10 10:42:46;;;;;;;19.58;9.80;;;;;;;3.07;85.33;101271.91;5078470;28;20028;-66
2024/01/10 10:45:19;;;;;;;24.75;12.82;;;;;;;3.01;84.70;101274.81;5076014;28;20047;-66
2024/01/10 10:47:48;;;;;;;35.17;14.20;;;;;;;2.92;86.46;101270.91;5077601;28;20040;-63
2024/01/10 10:50:21;;;;;;;20.48;11.18;;;;;;;3.02;88.14;101266.91;5077481;28;20036;-63
2024/01/10 10:52:48;;;;;;;17.13;10.35;;;;;;;3.19;85.66;101260.84;5077946;28;20037;-63
2024/01/10 10:55:23;;;;;;;40.75;17.63;;;;;;;3.23;86.14;101256.28;5078039;28;20033;-64
2024/01/10 10:57:49;;;;;;;18.60;9.38;;;;;;;3.33;86.03;101254.91;5076663;28;20245;-65
2024/01/10 11:00:18;;;;;;;23.30;10.65;;;;;;;3.08;87.37;101247.44;5077430;28;20103;-63
2024/01/10 11:02:45;;;;;;;15.25;8.55;;;;;;;3.33;86.99;101257.53;5077211;28;20201;-64
2024/01/10 11:05:11;;;;;;;25.42;11.52;;;;;;;3.40;85.88;101249.25;5078164;28;20082;-64
2024/01/10 11:07:38;;;;;;;16.27;9.52;;;;;;;3.39;88.24;101247.56;5075106;28;20081;-66
2024/01/10 11:10:21;;;;;;;20.25;10.13;;;;;;;3.47;89.18;101245.41;5078089;28;20054;-66
2024/01/10 11:13:35;;;;;;;15.40;9.35;;;;;;;3.43;88.85;101237.78;5077302;28;20257;-64